Terminal Aerodrome Forecast
Issued by NWS

Current Version | Previous Version | Text Only | Print | Product List | Glossary On
Versions: 1 2 3 4 5 6 7 8 9 10 11 12 13 14 15 16 17 18
000
FTUS41 KBTV 030520
TAFSLK
TAF
KSLK 030520Z 0306/0406 20010KT P6SM SCT150 WS020/23040KT
     FM031500 21014G26KT P6SM VCSH FEW040 SCT200
     FM031800 22015G25KT 6SM +SHRA BKN040 OVC080
     FM032300 23010G21KT P6SM VCSH FEW035 BKN080=

USA.gov is the U.S. government's official web portal to all federal, state and local government web resources and services.